Time;durP1;ratioP1;P1;durP2;ratioP2;P2;SDS_P1;SDS_P2;PMS_P1;PMS_P2;Temp;Humidity;BMP_temperature;BMP_pressure;BME280_temperature;BME280_humidity;BME280_pressure;Samples;Min_cycle;Max_cycle;Signal;HPM_P1;HPM_P2
2021/05/18 00:00:44;;;;;;;1.50;0.80;;;10.70;86.50;;;;;;5967677;24;20180;-85
2021/05/18 00:03:11;;;;;;;0.47;0.43;;;10.80;86.40;;;;;;5967349;24;20294;-85
2021/05/18 00:05:40;;;;;;;1.42;0.70;;;10.90;86.00;;;;;;5967311;24;20187;-85
2021/05/18 00:08:08;;;;;;;1.45;0.80;;;10.80;86.30;;;;;;5966611;24;20212;-85
2021/05/18 00:13:34;;;;;;;2.17;0.80;;;10.60;88.80;;;;;;5967030;24;20218;-87
2021/05/18 00:16:03;;;;;;;1.25;0.68;;;10.90;84.90;;;;;;5966784;24;20168;-85
2021/05/18 00:18:32;;;;;;;1.67;0.65;;;10.80;86.60;;;;;;5967630;24;20180;-86
2021/05/18 00:20:59;;;;;;;0.60;0.60;;;10.70;86.60;;;;;;5968014;24;20180;-85
2021/05/18 00:23:25;;;;;;;1.65;0.70;;;10.70;87.20;;;;;;5968044;24;20187;-85
2021/05/18 00:25:52;;;;;;;0.85;0.60;;;10.70;87.00;;;;;;5968195;24;20180;-85
2021/05/18 00:28:18;;;;;;;1.52;0.73;;;10.70;87.40;;;;;;5967848;24;20340;-85
2021/05/18 00:31:22;;;;;;;0.70;0.70;;;10.60;87.80;;;;;;5968340;24;20532;-85
2021/05/18 00:33:50;;;;;;;1.02;0.60;;;10.70;85.30;;;;;;5967602;24;20247;-85
2021/05/18 00:36:16;;;;;;;0.77;0.68;;;10.80;85.60;;;;;;5967273;24;20186;-87
2021/05/18 00:38:43;;;;;;;1.20;0.80;;;10.80;85.20;;;;;;5966097;24;20212;-86
2021/05/18 00:41:10;;;;;;;1.05;0.77;;;10.80;84.30;;;;;;5967647;24;20180;-86
2021/05/18 00:43:38;;;;;;;1.20;0.70;;;10.60;84.80;;;;;;5968008;24;20212;-85
2021/05/18 00:46:06;;;;;;;0.60;0.60;;;10.60;85.60;;;;;;5968701;24;20180;-86
2021/05/18 00:48:32;;;;;;;0.85;0.70;;;10.70;84.60;;;;;;5967387;24;20204;-86
2021/05/18 00:51:04;;;;;;;1.17;0.80;;;10.70;84.60;;;;;;5968400;24;20176;-85
2021/05/18 00:53:30;;;;;;;1.77;0.52;;;10.60;84.90;;;;;;5967654;24;20230;-85
2021/05/18 00:56:00;;;;;;;0.90;0.60;;;10.60;84.30;;;;;;5968273;24;20209;-87
2021/05/18 00:58:33;;;;;;;1.20;0.73;;;10.60;83.60;;;;;;5968184;24;20271;-86
2021/05/18 01:01:02;;;;;;;2.92;0.60;;;10.70;83.40;;;;;;5968421;24;20609;-85
2021/05/18 01:03:28;;;;;;;2.38;0.50;;;10.70;84.60;;;;;;5966639;24;20616;-86
2021/05/18 01:08:42;;;;;;;0.55;0.50;;;10.50;84.60;;;;;;5968177;24;20343;-85
2021/05/18 01:11:10;;;;;;;0.50;0.50;;;10.60;83.60;;;;;;5968138;24;20183;-85
2021/05/18 01:13:36;;;;;;;0.35;0.35;;;10.60;82.90;;;;;;5965829;24;20271;-85
2021/05/18 01:16:04;;;;;;;0.52;0.52;;;10.70;82.10;;;;;;5967759;24;20180;-86
2021/05/18 01:18:36;;;;;;;0.73;0.40;;;10.60;83.30;;;;;;5967328;24;20275;-85
2021/05/18 01:21:04;;;;;;;0.50;0.40;;;10.50;83.60;;;;;;5967999;24;20585;-85
2021/05/18 01:23:30;;;;;;;0.40;0.40;;;10.50;83.30;;;;;;5966923;24;20208;-86
2021/05/18 01:25:56;;;;;;;0.82;0.40;;;10.50;83.60;;;;;;5967630;24;20259;-85
2021/05/18 01:28:26;;;;;;;0.65;0.50;;;10.40;85.30;;;;;;5966344;24;20302;-85
2021/05/18 01:30:53;;;;;;;1.13;0.55;;;10.40;84.40;;;;;;5967644;24;20204;-87
2021/05/18 01:33:19;;;;;;;4.70;0.60;;;10.40;84.90;;;;;;5966960;24;20207;-88
2021/05/18 01:35:47;;;;;;;0.45;0.45;;;10.50;83.30;;;;;;5967698;24;20199;-85
2021/05/18 01:38:18;;;;;;;1.02;0.63;;;10.40;84.20;;;;;;5966987;24;20208;-86
2021/05/18 01:43:29;;;;;;;0.40;0.40;;;10.50;83.30;;;;;;5967265;24;20264;-84
2021/05/18 01:45:55;;;;;;;0.50;0.45;;;10.50;84.50;;;;;;5968611;24;20186;-84
2021/05/18 01:48:22;;;;;;;0.40;0.40;;;10.40;84.00;;;;;;5967631;24;20216;-87
2021/05/18 01:50:49;;;;;;;0.80;0.50;;;10.30;84.50;;;;;;5968684;24;20180;-85
2021/05/18 01:53:18;;;;;;;0.47;0.40;;;10.40;84.30;;;;;;5968032;24;20251;-88
2021/05/18 01:55:55;;;;;;;0.40;0.40;;;10.50;83.20;;;;;;5968892;24;20177;-85
2021/05/18 01:58:22;;;;;;;0.50;0.50;;;10.50;83.60;;;;;;5967256;24;20221;-86
2021/05/18 02:00:49;;;;;;;0.57;0.50;;;10.50;83.90;;;;;;5968538;24;20206;-85
2021/05/18 02:03:15;;;;;;;0.50;0.50;;;10.50;84.30;;;;;;5967543;24;20204;-85
2021/05/18 02:05:42;;;;;;;0.95;0.60;;;10.60;82.20;;;;;;5968364;24;20449;-85
2021/05/18 02:08:11;;;;;;;1.02;0.40;;;10.60;82.90;;;;;;5966718;24;20216;-85
2021/05/18 02:10:39;;;;;;;0.45;0.40;;;10.50;83.70;;;;;;5967804;24;20240;-85
2021/05/18 02:13:05;;;;;;;0.47;0.40;;;10.50;83.80;;;;;;5967474;24;20208;-85
2021/05/18 02:15:40;;;;;;;0.75;0.40;;;10.50;84.10;;;;;;5968658;24;20262;-85
2021/05/18 02:18:25;;;;;;;0.50;0.50;;;10.40;84.90;;;;;;5966344;24;20211;-85
2021/05/18 02:20:57;;;;;;;1.42;0.50;;;10.40;84.80;;;;;;5968815;24;20196;-85
2021/05/18 02:26:09;;;;;;;1.20;0.55;;;10.40;84.10;;;;;;5967684;24;20224;-86
2021/05/18 02:28:35;;;;;;;0.73;0.60;;;10.40;84.20;;;;;;5967620;24;20212;-85
2021/05/18 02:31:02;;;;;;;0.95;0.77;;;10.30;85.50;;;;;;5968301;24;20186;-85
2021/05/18 02:33:28;;;;;;;1.77;0.60;;;10.30;85.40;;;;;;5967247;24;20212;-85
2021/05/18 02:35:54;;;;;;;1.05;0.68;;;10.30;85.50;;;;;;5968134;24;20180;-85
2021/05/18 02:38:21;;;;;;;0.60;0.60;;;10.30;85.90;;;;;;5967000;24;20218;-85
2021/05/18 02:40:47;;;;;;;3.40;0.80;;;10.40;85.30;;;;;;5968068;24;20180;-85
2021/05/18 02:43:19;;;;;;;0.90;0.50;;;10.40;84.90;;;;;;5966664;24;20208;-85
2021/05/18 02:45:55;;;;;;;0.73;0.60;;;10.40;84.90;;;;;;5968111;24;20183;-84
2021/05/18 02:51:05;;;;;;;0.65;0.50;;;10.40;84.80;;;;;;5897676;24;20557;-85
2021/05/18 02:53:31;;;;;;;2.97;0.70;;;10.30;85.60;;;;;;5966339;24;20212;-86
2021/05/18 02:56:02;;;;;;;0.50;0.50;;;10.10;86.80;;;;;;5967638;24;20258;-85
2021/05/18 02:58:31;;;;;;;0.60;0.60;;;10.20;85.90;;;;;;5965977;24;20240;-85
2021/05/18 03:00:57;;;;;;;1.67;0.60;;;10.20;86.60;;;;;;5966432;24;20320;-84
2021/05/18 03:03:24;;;;;;;0.70;0.52;;;10.10;87.40;;;;;;5965330;24;20211;-88
2021/05/18 03:05:50;;;;;;;0.63;0.60;;;10.20;86.70;;;;;;5967177;24;20624;-85
2021/05/18 03:08:18;;;;;;;0.80;0.80;;;10.30;85.80;;;;;;5965237;24;20216;-86
2021/05/18 03:10:45;;;;;;;3.03;0.55;;;10.30;86.60;;;;;;5966115;24;20184;-87
2021/05/18 03:13:11;;;;;;;0.68;0.68;;;10.30;87.40;;;;;;5965703;24;20211;-85
2021/05/18 03:15:38;;;;;;;0.50;0.50;;;10.40;85.30;;;;;;5968515;24;20253;-85
2021/05/18 03:18:05;;;;;;;0.90;0.63;;;10.50;86.40;;;;;;5967819;24;20218;-85
2021/05/18 03:20:32;;;;;;;0.55;0.40;;;10.50;86.00;;;;;;5966355;24;20275;-87
2021/05/18 03:22:58;;;;;;;0.35;0.35;;;10.40;85.60;;;;;;5967924;24;20208;-85
2021/05/18 03:25:24;;;;;;;1.58;0.73;;;10.40;85.20;;;;;;5967366;24;20496;-87
2021/05/18 03:27:52;;;;;;;0.40;0.40;;;10.40;85.40;;;;;;5966622;24;20215;-86
2021/05/18 03:30:27;;;;;;;0.43;0.43;;;10.40;85.90;;;;;;5967608;24;20176;-84
2021/05/18 03:35:39;;;;;;;0.85;0.52;;;10.50;85.00;;;;;;5966631;24;20215;-86
2021/05/18 03:38:13;;;;;;;0.60;0.60;;;10.50;86.70;;;;;;5966388;24;20218;-85
2021/05/18 03:40:41;;;;;;;1.40;0.50;;;10.50;85.80;;;;;;5967385;24;20188;-84
2021/05/18 03:43:12;;;;;;;0.50;0.50;;;10.50;85.40;;;;;;5967143;24;20235;-85
2021/05/18 03:45:44;;;;;;;0.60;0.60;;;10.60;84.30;;;;;;5967913;24;20196;-85
2021/05/18 03:53:59;;;;;;;0.60;0.60;;;10.50;84.80;;;;;;5909170;24;20256;-86
2021/05/18 04:04:52;;;;;;;0.52;0.52;;;10.30;87.40;;;;;;5968215;24;20203;-85
2021/05/18 04:10:23;;;;;;;0.60;0.60;;;10.50;85.80;;;;;;5933090;24;20183;-85
2021/05/18 04:12:51;;;;;;;3.92;1.33;;;10.50;84.80;;;;;;5966905;24;20227;-84
2021/05/18 04:18:19;;;;;;;1.02;0.65;;;10.60;83.90;;;;;;5968559;24;20219;-85
2021/05/18 04:20:53;;;;;;;0.47;0.47;;;10.50;85.10;;;;;;5969616;24;20263;-85
2021/05/18 04:23:28;;;;;;;1.73;0.57;;;10.50;84.90;;;;;;5968891;24;20231;-87
2021/05/18 04:59:49;;;;;;;1.10;0.52;;;11.10;78.20;;;;;;5968044;24;20164;-84
2021/05/18 05:07:57;;;;;;;0.50;0.50;;;10.90;78.60;;;;;;5968659;24;20260;-85
2021/05/18 05:12:18;;;;;;;0.50;0.50;;;10.90;79.70;;;;;;5970556;24;20712;-85
2021/05/18 05:52:09;;;;;;;2.10;1.02;;;11.50;76.80;;;;;;6000455;23;20241;-85
2021/05/18 05:54:40;;;;;;;0.50;0.50;;;11.60;75.60;;;;;;5997481;24;20216;-87
2021/05/18 06:01:00;;;;;;;1.67;0.60;;;11.80;75.00;;;;;;6000516;24;20160;-87
2021/05/18 06:03:26;;;;;;;0.55;0.50;;;11.80;75.00;;;;;;5973934;24;20190;-88
2021/05/18 06:05:55;;;;;;;1.58;0.60;;;11.70;75.00;;;;;;5994405;24;20542;-85
2021/05/18 06:08:22;;;;;;;1.58;0.63;;;11.70;75.00;;;;;;5994286;23;20217;-86
2021/05/18 06:10:52;;;;;;;0.93;0.73;;;11.60;76.80;;;;;;5995182;24;20179;-85
2021/05/18 06:42:37;;;;;;;2.40;0.80;;;11.70;77.10;;;;;;5931188;24;20222;-86
2021/05/18 06:47:49;;;;;;;1.02;0.70;;;12.20;75.30;;;;;;5961175;24;20228;-87
2021/05/18 06:50:28;;;;;;;1.23;0.90;;;12.30;75.40;;;;;;5955487;24;20180;-86
2021/05/18 06:52:57;;;;;;;1.00;0.80;;;12.30;74.40;;;;;;5960860;24;20211;-85
2021/05/18 06:55:27;;;;;;;1.52;0.70;;;12.30;73.40;;;;;;5961265;24;20199;-87
2021/05/18 06:58:01;;;;;;;1.35;0.82;;;12.30;75.40;;;;;;5962421;24;20211;-86
2021/05/18 07:00:27;;;;;;;0.75;0.75;;;12.30;75.40;;;;;;5966517;24;20180;-88
2021/05/18 07:02:57;;;;;;;1.15;0.70;;;12.40;75.80;;;;;;5967266;24;20285;-87
2021/05/18 07:05:33;;;;;;;0.88;0.88;;;12.50;73.20;;;;;;5968223;24;20193;-87
2021/05/18 07:08:09;;;;;;;0.88;0.70;;;12.60;75.60;;;;;;5967926;24;20247;-86
2021/05/18 07:10:37;;;;;;;0.85;0.77;;;12.70;75.60;;;;;;5972034;24;20180;-87
2021/05/18 07:13:04;;;;;;;2.47;0.70;;;13.00;73.70;;;;;;5973539;24;20231;-86
2021/05/18 07:15:31;;;;;;;0.65;0.65;;;13.30;71.60;;;;;;5972318;24;20213;-88
2021/05/18 07:18:43;;;;;;;1.40;0.65;;;13.40;67.60;;;;;;5971680;24;20212;-88
2021/05/18 07:21:10;;;;;;;1.40;0.80;;;13.70;66.20;;;;;;5970727;24;20243;-91
2021/05/18 07:23:37;;;;;;;0.90;0.75;;;13.90;65.30;;;;;;5968192;24;20212;-92
2021/05/18 07:26:05;;;;;;;0.80;0.80;;;14.10;63.20;;;;;;5970759;24;20220;-88
2021/05/18 07:28:32;;;;;;;0.70;0.70;;;14.20;61.70;;;;;;5968615;24;20235;-88
2021/05/18 07:30:59;;;;;;;0.88;0.88;;;14.20;61.50;;;;;;5969366;24;20232;-88
2021/05/18 07:33:27;;;;;;;1.50;0.95;;;13.90;63.30;;;;;;5969492;24;20212;-90
2021/05/18 07:35:57;;;;;;;1.00;0.80;;;13.60;63.30;;;;;;5970336;24;20175;-88
2021/05/18 07:38:24;;;;;;;0.70;0.70;;;13.50;66.90;;;;;;5971594;24;20207;-90
2021/05/18 07:40:52;;;;;;;3.22;0.80;;;13.20;66.80;;;;;;5949181;24;20204;-89
2021/05/18 07:43:19;;;;;;;1.73;0.82;;;13.30;66.30;;;;;;5972511;24;20317;-89
2021/05/18 07:45:52;;;;;;;0.70;0.70;;;13.70;67.50;;;;;;5969184;24;20179;-86
2021/05/18 07:48:25;;;;;;;1.33;0.98;;;14.10;65.90;;;;;;5965908;24;20307;-91
2021/05/18 07:50:59;;;;;;;1.15;1.05;;;14.20;62.40;;;;;;5969899;24;20255;-90
2021/05/18 08:07:09;;;;;;;1.27;0.95;;;15.70;52.00;;;;;;5959952;24;20276;-86
2021/05/18 08:09:41;;;;;;;1.35;0.60;;;15.50;51.90;;;;;;5959218;24;20192;-86
2021/05/18 08:12:09;;;;;;;3.70;0.90;;;15.40;54.00;;;;;;5958590;24;20238;-87
2021/05/18 08:18:32;;;;;;;0.68;0.50;;;15.60;52.70;;;;;;5968514;24;20210;-85
2021/05/18 10:15:59;;;;;;;1.38;0.95;;;13.90;71.50;;;;;;5966239;24;20687;-87
2021/05/18 10:34:56;;;;;;;0.88;0.70;;;18.40;43.90;;;;;;5964297;24;20172;-85
2021/05/18 10:37:35;;;;;;;0.70;0.70;;;17.60;43.00;;;;;;5961421;24;20303;-83
2021/05/18 10:40:31;;;;;;;0.50;0.50;;;17.40;43.00;;;;;;5967534;24;20172;-88
2021/05/18 10:43:23;;;;;;;0.68;0.68;;;16.80;47.90;;;;;;5969991;24;20236;-87
2021/05/18 10:46:14;;;;;;;0.98;0.93;;;16.80;48.20;;;;;;5968150;24;20539;-87
2021/05/18 10:49:04;;;;;;;0.98;0.80;;;16.20;49.80;;;;;;5966741;24;20212;-89
2021/05/18 10:51:39;;;;;;;1.95;0.70;;;15.60;51.90;;;;;;5957849;24;20227;-89
2021/05/18 10:54:26;;;;;;;0.70;0.70;;;15.00;54.30;;;;;;5938088;24;20729;-87
2021/05/18 10:57:29;;;;;;;3.25;0.80;;;14.70;57.00;;;;;;5933616;24;20169;-86
2021/05/18 10:59:58;;;;;;;0.95;0.70;;;15.10;57.20;;;;;;5936062;24;20248;-86
2021/05/18 11:02:28;;;;;;;1.02;0.50;;;16.30;52.50;;;;;;5936618;24;20212;-87
2021/05/18 11:04:57;;;;;;;2.15;1.00;;;16.50;49.30;;;;;;5937547;24;20196;-86
2021/05/18 11:07:32;;;;;;;1.27;1.17;;;16.60;52.80;;;;;;5934952;24;20740;-90
2021/05/18 11:09:59;;;;;;;1.00;0.90;;;16.70;52.90;;;;;;5934620;24;20255;-88
2021/05/18 11:12:26;;;;;;;3.30;0.80;;;16.20;52.40;;;;;;5933064;24;20223;-86
2021/05/18 11:15:04;;;;;;;1.15;0.90;;;15.70;53.00;;;;;;5937508;24;20239;-89
2021/05/18 11:17:32;;;;;;;0.50;0.50;;;15.50;58.00;;;;;;5932936;24;20208;-85
2021/05/18 11:20:14;;;;;;;0.80;0.80;;;15.10;57.80;;;;;;5936119;24;20519;-86
2021/05/18 11:23:21;;;;;;;0.60;0.60;;;14.80;60.50;;;;;;5939028;24;20208;-85
2021/05/18 11:29:40;;;;;;;0.47;0.40;;;14.10;64.50;;;;;;5942518;24;20231;-85
2021/05/18 11:32:13;;;;;;;0.60;0.60;;;13.60;67.70;;;;;;5942906;24;20279;-85
2021/05/18 11:35:14;;;;;;;0.60;0.60;;;13.70;68.40;;;;;;5944617;24;20175;-88
2021/05/18 11:41:04;;;;;;;0.40;0.40;;;14.10;64.40;;;;;;5948753;24;20148;-89
2021/05/18 11:43:34;;;;;;;1.98;0.60;;;14.20;58.10;;;;;;5942526;24;20283;-87
2021/05/18 11:46:06;;;;;;;1.38;0.70;;;14.30;57.50;;;;;;5939900;24;20499;-87
2021/05/18 11:48:34;;;;;;;1.25;0.80;;;14.30;57.20;;;;;;5936731;24;20227;-87
2021/05/18 11:51:04;;;;;;;1.75;0.90;;;14.70;56.80;;;;;;5940194;24;20223;-93
2021/05/18 11:53:33;;;;;;;0.73;0.70;;;14.50;54.50;;;;;;5941096;24;20236;-89
2021/05/18 11:55:59;;;;;;;1.95;1.10;;;14.50;54.50;;;;;;5935629;24;20175;-84
2021/05/18 11:58:27;;;;;;;1.20;1.10;;;14.70;55.50;;;;;;5936717;24;20216;-87
2021/05/18 12:01:05;;;;;;;0.93;0.60;;;14.90;54.40;;;;;;5938765;24;20177;-84
2021/05/18 12:03:34;;;;;;;0.70;0.70;;;15.10;52.60;;;;;;5937774;24;20216;-86
2021/05/18 12:06:01;;;;;;;0.77;0.77;;;15.10;53.50;;;;;;5932461;24;20184;-85
2021/05/18 12:08:29;;;;;;;2.15;0.70;;;15.20;51.50;;;;;;5950922;24;20216;-85
2021/05/18 12:11:09;;;;;;;0.88;0.65;;;15.10;51.50;;;;;;5959448;24;20182;-88
2021/05/18 12:13:39;;;;;;;0.65;0.65;;;15.10;51.50;;;;;;5937150;24;20243;-85
2021/05/18 12:16:07;;;;;;;0.70;0.70;;;15.20;49.70;;;;;;5931593;24;20502;-88
2021/05/18 12:18:35;;;;;;;3.40;0.80;;;15.20;51.60;;;;;;5928404;24;20671;-85
2021/05/18 12:21:05;;;;;;;2.03;0.70;;;15.50;50.30;;;;;;5932258;24;20181;-88
2021/05/18 12:23:34;;;;;;;3.53;0.93;;;15.60;48.00;;;;;;5936040;24;20216;-88
2021/05/18 12:26:11;;;;;;;0.85;0.40;;;15.40;48.40;;;;;;5939683;24;20212;-87
2021/05/18 12:28:38;;;;;;;1.13;0.47;;;15.00;46.40;;;;;;5943440;24;20209;-88
2021/05/18 12:31:30;;;;;;;1.33;0.60;;;14.90;47.70;;;;;;5944945;24;20180;-88
2021/05/18 12:33:57;;;;;;;3.63;0.40;;;14.70;51.10;;;;;;5944626;24;20257;-87
2021/05/18 12:36:23;;;;;;;0.98;0.75;;;15.00;51.40;;;;;;5944174;24;20259;-87
2021/05/18 12:39:06;;;;;;;6.28;1.20;;;15.30;51.70;;;;;;5942270;24;20294;-87
2021/05/18 12:41:50;;;;;;;0.70;0.52;;;15.30;49.80;;;;;;5940506;24;20232;-89
2021/05/18 12:44:18;;;;;;;1.75;0.65;;;15.80;45.20;;;;;;5937498;24;20560;-89
2021/05/18 12:46:56;;;;;;;0.50;0.50;;;16.10;46.30;;;;;;5938095;24;20184;-90
2021/05/18 12:49:41;;;;;;;0.80;0.63;;;15.90;49.40;;;;;;5939717;24;20201;-88
2021/05/18 12:52:12;;;;;;;0.30;0.30;;;15.90;45.00;;;;;;5937527;24;20216;-88
2021/05/18 12:54:50;;;;;;;0.50;0.50;;;15.90;43.80;;;;;;5937146;24;20184;-86
2021/05/18 12:57:19;;;;;;;2.78;0.60;;;16.00;46.20;;;;;;5935757;24;20736;-87
2021/05/18 13:00:11;;;;;;;0.98;0.60;;;15.70;47.60;;;;;;5937963;24;20173;-86
2021/05/18 13:02:43;;;;;;;0.65;0.65;;;15.60;47.30;;;;;;5941255;24;20292;-88
2021/05/18 13:05:20;;;;;;;1.15;0.65;;;15.50;49.60;;;;;;5940593;24;20220;-88
2021/05/18 13:08:05;;;;;;;1.25;0.65;;;15.40;46.30;;;;;;5945710;24;20211;-86
2021/05/18 13:10:41;;;;;;;0.57;0.45;;;15.10;47.40;;;;;;5946020;24;20210;-88
2021/05/18 13:13:09;;;;;;;1.23;0.60;;;14.80;48.20;;;;;;5936201;24;20215;-88
2021/05/18 13:15:37;;;;;;;0.90;0.60;;;14.80;51.20;;;;;;5950658;24;20177;-91
2021/05/18 13:18:05;;;;;;;1.10;0.52;;;15.10;48.00;;;;;;5941799;24;20224;-89
2021/05/18 13:20:41;;;;;;;1.45;0.70;;;15.50;47.40;;;;;;5943342;24;20251;-88
2021/05/18 13:23:12;;;;;;;0.68;0.68;;;15.60;46.10;;;;;;5941972;24;20256;-92
2021/05/18 13:28:24;;;;;;;2.42;0.60;;;15.80;46.10;;;;;;5942019;24;20304;-86
2021/05/18 13:30:51;;;;;;;1.05;0.70;;;15.80;45.80;;;;;;5941007;24;20218;-89
2021/05/18 13:33:18;;;;;;;1.50;0.73;;;15.80;48.70;;;;;;5940071;24;20246;-85
2021/05/18 13:35:45;;;;;;;1.08;0.90;;;15.60;46.10;;;;;;5939528;24;20621;-88
2021/05/18 13:38:11;;;;;;;1.70;0.77;;;15.80;46.10;;;;;;5938836;24;20564;-92
2021/05/18 13:40:38;;;;;;;2.08;0.75;;;15.70;46.70;;;;;;5941495;24;20240;-87
2021/05/18 13:43:05;;;;;;;0.75;0.60;;;16.00;48.40;;;;;;5941744;24;20213;-88
2021/05/18 13:45:31;;;;;;;1.27;0.68;;;16.20;43.50;;;;;;5940580;24;20237;-87
2021/05/18 13:51:21;;;;;;;2.17;1.15;;;16.50;41.50;;;;;;5938215;24;20233;-90
2021/05/18 13:53:48;;;;;;;3.28;0.90;;;15.90;44.50;;;;;;5939971;24;20283;-90
2021/05/18 13:56:15;;;;;;;1.75;0.90;;;15.90;44.30;;;;;;5940409;24;20276;-88
2021/05/18 13:58:42;;;;;;;2.35;0.85;;;16.00;44.90;;;;;;5939823;24;20215;-90
2021/05/18 14:01:09;;;;;;;0.93;0.80;;;16.20;44.60;;;;;;5937026;24;20180;-89
2021/05/18 14:03:36;;;;;;;2.03;1.05;;;16.30;43.10;;;;;;5930324;24;20521;-88
2021/05/18 14:06:04;;;;;;;1.30;0.80;;;16.50;41.80;;;;;;5932110;24;20189;-87
2021/05/18 14:08:33;;;;;;;0.80;0.80;;;16.30;41.90;;;;;;5932061;24;20288;-88
2021/05/18 14:11:10;;;;;;;6.95;2.10;;;16.10;42.50;;;;;;5932241;24;20219;-89
2021/05/18 14:13:39;;;;;;;2.10;0.85;;;16.20;44.90;;;;;;5931768;24;20292;-88
2021/05/18 14:16:07;;;;;;;2.88;1.48;;;16.00;42.60;;;;;;5933074;24;20183;-88
2021/05/18 14:18:34;;;;;;;3.20;1.33;;;16.20;44.60;;;;;;5932028;24;20245;-87
2021/05/18 14:21:03;;;;;;;1.83;1.30;;;16.20;43.60;;;;;;5932429;24;20185;-90
2021/05/18 14:23:34;;;;;;;3.70;1.15;;;16.20;43.50;;;;;;5932942;24;20215;-90
2021/05/18 14:26:02;;;;;;;1.50;1.10;;;16.50;43.70;;;;;;5933149;24;20173;-89
2021/05/18 14:28:28;;;;;;;1.00;0.90;;;16.80;42.30;;;;;;5930262;24;20219;-90
2021/05/18 14:30:55;;;;;;;1.55;1.17;;;16.80;40.20;;;;;;5941149;24;20185;-91
2021/05/18 14:33:21;;;;;;;1.15;0.90;;;16.60;42.30;;;;;;5942461;24;20219;-89
2021/05/18 14:35:48;;;;;;;1.73;0.90;;;16.50;42.80;;;;;;5943487;24;20602;-89
2021/05/18 14:38:17;;;;;;;3.08;0.95;;;16.40;42.70;;;;;;5940656;24;20231;-87
2021/05/18 14:46:20;;;;;;;1.75;0.90;;;16.00;42.80;;;;;;5937006;24;20251;-89
2021/05/18 14:57:30;;;;;;;5.82;0.85;;;14.80;50.20;;;;;;5953053;24;20208;-88
2021/05/18 14:59:57;;;;;;;1.27;0.50;;;14.30;50.70;;;;;;5970762;24;20169;-86
2021/05/18 15:02:24;;;;;;;0.55;0.55;;;13.50;52.90;;;;;;5970722;24;20216;-86
2021/05/18 15:04:50;;;;;;;1.65;0.70;;;13.20;55.60;;;;;;5971721;24;20231;-87
2021/05/18 15:07:17;;;;;;;2.95;0.80;;;12.90;53.80;;;;;;5972650;24;20204;-86
2021/05/18 15:09:44;;;;;;;3.63;0.70;;;12.80;55.60;;;;;;5972615;24;20178;-86
2021/05/18 15:12:11;;;;;;;0.40;0.40;;;12.60;57.90;;;;;;5972200;23;20208;-87
2021/05/18 15:14:38;;;;;;;0.65;0.65;;;12.80;59.40;;;;;;5972306;24;20211;-86
2021/05/18 15:17:06;;;;;;;1.45;0.80;;;13.20;57.60;;;;;;5972140;24;20180;-86
2021/05/18 15:19:32;;;;;;;3.70;0.90;;;13.60;54.80;;;;;;5971602;24;20180;-88
2021/05/18 15:25:46;;;;;;;0.85;0.65;;;14.20;52.20;;;;;;5975073;24;20189;-86
2021/05/18 15:28:13;;;;;;;1.00;0.75;;;14.60;51.00;;;;;;5955165;24;20215;-86
2021/05/18 15:31:19;;;;;;;0.95;0.80;;;14.60;50.90;;;;;;5973636;24;20519;-87
2021/05/18 15:34:06;;;;;;;0.80;0.70;;;14.60;51.00;;;;;;5973810;24;20211;-86
2021/05/18 15:36:32;;;;;;;2.50;0.80;;;14.40;50.80;;;;;;5973873;24;20180;-86
2021/05/18 15:39:00;;;;;;;1.40;0.70;;;14.60;51.00;;;;;;5972399;24;20191;-88
2021/05/18 15:41:26;;;;;;;1.95;0.85;;;14.50;50.90;;;;;;5947005;24;20187;-89
2021/05/18 15:44:05;;;;;;;2.40;1.02;;;14.60;51.00;;;;;;5944063;24;20213;-88
2021/05/18 15:46:32;;;;;;;1.65;0.93;;;14.80;51.20;;;;;;5942198;24;20172;-87
2021/05/18 15:48:59;;;;;;;1.25;0.80;;;15.10;48.80;;;;;;5939021;24;20208;-87
2021/05/18 15:51:26;;;;;;;0.50;0.50;;;15.30;48.90;;;;;;5935809;24;20192;-87
2021/05/18 15:53:52;;;;;;;0.95;0.65;;;15.30;47.70;;;;;;5937953;24;20208;-87
2021/05/18 15:56:19;;;;;;;0.93;0.75;;;15.30;48.30;;;;;;5940223;24;20180;-89
2021/05/18 15:58:45;;;;;;;1.55;0.85;;;15.10;49.50;;;;;;5938729;24;20655;-88
2021/05/18 16:01:12;;;;;;;0.77;0.77;;;15.00;49.20;;;;;;5939754;24;20216;-86
2021/05/18 16:03:38;;;;;;;1.52;1.00;;;14.90;51.30;;;;;;5935465;24;20212;-87
2021/05/18 16:06:07;;;;;;;2.92;0.90;;;14.60;51.00;;;;;;5939244;24;20190;-86
2021/05/18 16:11:21;;;;;;;0.88;0.68;;;14.60;51.00;;;;;;5941111;24;20165;-88
2021/05/18 16:13:48;;;;;;;2.10;0.85;;;14.60;51.00;;;;;;5940405;24;20551;-88
2021/05/18 16:16:16;;;;;;;1.35;0.80;;;14.70;49.10;;;;;;5940371;24;20265;-87
2021/05/18 16:18:44;;;;;;;0.73;0.73;;;14.80;50.00;;;;;;5937534;24;20299;-87
2021/05/18 16:21:16;;;;;;;0.80;0.73;;;14.90;51.30;;;;;;5939427;24;20276;-87
2021/05/18 16:23:42;;;;;;;0.63;0.60;;;14.80;51.20;;;;;;5938530;24;20220;-86
2021/05/18 16:26:09;;;;;;;0.98;0.85;;;14.80;51.20;;;;;;5939893;24;20526;-86
2021/05/18 16:32:00;;;;;;;1.05;0.95;;;15.30;48.90;;;;;;5938617;24;20196;-88
2021/05/18 16:34:29;;;;;;;0.88;0.80;;;15.30;48.10;;;;;;5939437;24;20165;-86
2021/05/18 16:36:56;;;;;;;1.45;0.80;;;14.90;47.30;;;;;;5940015;24;20165;-87
2021/05/18 16:39:23;;;;;;;2.20;0.77;;;14.70;46.80;;;;;;5939393;24;20189;-87
2021/05/18 16:41:51;;;;;;;1.70;0.75;;;14.60;49.30;;;;;;5940478;24;20180;-86
2021/05/18 16:44:18;;;;;;;1.23;1.00;;;14.30;48.20;;;;;;5939845;24;20184;-88
2021/05/18 16:46:44;;;;;;;2.90;0.90;;;14.20;50.60;;;;;;5940771;24;20225;-86
2021/05/18 16:49:11;;;;;;;1.15;0.73;;;14.00;50.40;;;;;;5941003;24;20208;-86
2021/05/18 16:51:39;;;;;;;1.33;0.93;;;13.90;50.40;;;;;;5944484;24;20208;-84
2021/05/18 16:54:08;;;;;;;1.58;0.93;;;13.80;50.40;;;;;;5955363;24;20211;-87
2021/05/18 16:56:36;;;;;;;9.93;6.72;;;13.80;50.30;;;;;;5947374;24;20215;-85
2021/05/18 16:59:04;;;;;;;9.98;7.30;;;13.90;54.70;;;;;;5947878;24;20193;-85
2021/05/18 17:01:30;;;;;;;59.63;46.97;;;14.40;52.50;;;;;;5948107;24;20187;-88
2021/05/18 17:03:57;;;;;;;24.60;19.33;;;14.70;53.70;;;;;;5946098;24;20284;-90
2021/05/18 17:06:23;;;;;;;15.93;13.30;;;15.10;51.50;;;;;;5948000;24;20240;-87
2021/05/18 17:08:50;;;;;;;2.60;2.40;;;15.20;47.50;;;;;;5946988;24;20209;-87
2021/05/18 17:11:17;;;;;;;1.50;1.20;;;15.30;46.20;;;;;;5948134;24;20192;-87
2021/05/18 17:13:43;;;;;;;8.65;6.75;;;15.00;46.10;;;;;;5945533;24;20596;-89
2021/05/18 17:16:10;;;;;;;46.17;35.90;;;15.00;47.60;;;;;;5936311;24;20276;-87
2021/05/18 17:18:36;;;;;;;29.75;24.05;;;15.20;51.50;;;;;;5937011;24;20264;-85
2021/05/18 17:21:03;;;;;;;38.15;30.50;;;15.50;49.60;;;;;;5937111;24;20180;-86
2021/05/18 17:23:30;;;;;;;7.57;6.53;;;15.40;51.70;;;;;;5937421;24;20856;-85
2021/05/18 17:25:57;;;;;;;2.10;1.23;;;15.40;48.40;;;;;;5940120;24;20688;-86
2021/05/18 17:28:27;;;;;;;55.15;44.13;;;15.10;48.50;;;;;;5930403;24;20212;-86
2021/05/18 17:30:53;;;;;;;78.28;59.90;;;14.90;51.30;;;;;;5948850;24;20177;-86
2021/05/18 17:33:19;;;;;;;2.95;1.10;;;14.80;51.20;;;;;;5943563;24;20333;-90
2021/05/18 17:35:47;;;;;;;1.42;1.20;;;14.80;50.50;;;;;;5944320;24;20225;-88
2021/05/18 17:38:16;;;;;;;2.42;2.05;;;14.70;51.10;;;;;;5944660;24;20205;-89
2021/05/18 17:40:53;;;;;;;0.90;0.82;;;14.40;50.80;;;;;;5946015;24;20394;-89
2021/05/18 17:43:19;;;;;;;1.02;0.85;;;14.20;52.70;;;;;;5946801;24;20227;-89
2021/05/18 17:46:02;;;;;;;0.80;0.70;;;14.00;53.80;;;;;;5948952;24;20189;-90
2021/05/18 17:48:35;;;;;;;1.83;1.05;;;13.80;56.00;;;;;;5947614;24;20208;-88
2021/05/18 17:51:11;;;;;;;0.95;0.90;;;13.60;55.90;;;;;;5937508;24;20188;-88
2021/05/18 17:53:38;;;;;;;1.95;1.45;;;13.40;57.30;;;;;;5941684;24;20168;-87
2021/05/18 17:56:04;;;;;;;0.80;0.80;;;13.30;59.10;;;;;;5939608;24;20185;-88
2021/05/18 17:58:31;;;;;;;0.90;0.90;;;13.30;59.20;;;;;;5938726;24;20231;-88
2021/05/18 18:00:59;;;;;;;1.30;1.00;;;13.30;64.30;;;;;;5940374;24;20622;-89
2021/05/18 18:03:26;;;;;;;2.45;0.90;;;13.30;67.80;;;;;;5932583;24;20208;-87
2021/05/18 18:05:53;;;;;;;1.60;1.02;;;13.30;71.60;;;;;;5947097;24;20233;-89
2021/05/18 18:08:25;;;;;;;1.35;1.00;;;13.20;72.30;;;;;;5941016;24;20208;-90
2021/05/18 18:10:59;;;;;;;0.82;0.80;;;13.20;71.00;;;;;;5942500;24;20181;-91
2021/05/18 18:13:26;;;;;;;1.25;0.80;;;13.10;71.00;;;;;;5942013;24;20224;-88
2021/05/18 18:15:52;;;;;;;0.90;0.85;;;13.10;69.40;;;;;;5918625;24;20237;-90
2021/05/18 18:18:20;;;;;;;0.95;0.95;;;13.00;67.60;;;;;;5939600;24;20215;-88
2021/05/18 18:20:47;;;;;;;2.47;0.95;;;12.80;69.80;;;;;;5917409;24;20179;-88
2021/05/18 18:23:13;;;;;;;1.73;1.02;;;12.70;71.20;;;;;;5940731;24;20260;-88
2021/05/18 18:25:39;;;;;;;1.45;0.98;;;12.60;67.20;;;;;;5941486;24;20238;-89
2021/05/18 18:28:07;;;;;;;1.00;1.00;;;12.40;67.60;;;;;;5941107;24;20241;-89
2021/05/18 18:30:34;;;;;;;0.77;0.77;;;12.20;71.50;;;;;;5942106;24;20191;-89
2021/05/18 18:33:00;;;;;;;1.50;1.02;;;12.20;71.20;;;;;;5936859;24;20201;-85
2021/05/18 18:35:27;;;;;;;0.80;0.80;;;12.00;71.00;;;;;;5936143;24;20180;-86
2021/05/18 18:37:54;;;;;;;1.85;1.00;;;11.90;75.10;;;;;;5935410;24;20210;-87